sensor_id;sensor_type;location;lat;lon;timestamp;temperature;humidity
39345;DHT22;25061;51.954;6.996;2023-11-21T05:30:24;7.50;99.90
39345;DHT22;25061;51.954;6.996;2023-11-21T05:32:50;7.30;99.90
39345;DHT22;25061;51.954;6.996;2023-11-21T05:35:15;7.30;99.90
39345;DHT22;25061;51.954;6.996;2023-11-21T05:37:47;7.40;99.90
39345;DHT22;25061;51.954;6.996;2023-11-21T05:40:13;7.60;99.90
39345;DHT22;25061;51.954;6.996;2023-11-21T05:42:39;7.50;99.90
39345;DHT22;25061;51.954;6.996;2023-11-21T05:45:07;7.50;99.90
39345;DHT22;25061;51.954;6.996;2023-11-21T05:47:42;7.40;99.90
39345;DHT22;25061;51.954;6.996;2023-11-21T05:50:10;7.60;99.90
39345;DHT22;25061;51.954;6.996;2023-11-21T05:52:40;7.40;99.90
39345;DHT22;25061;51.954;6.996;2023-11-21T05:55:06;7.40;99.90
39345;DHT22;25061;51.954;6.996;2023-11-21T05:57:36;7.50;99.90
39345;DHT22;25061;51.954;6.996;2023-11-21T06:00:06;7.60;99.90
39345;DHT22;25061;51.954;6.996;2023-11-21T06:02:40;7.40;99.90
39345;DHT22;25061;51.954;6.996;2023-11-21T06:05:09;7.50;99.90
39345;DHT22;25061;51.954;6.996;2023-11-21T06:07:35;7.50;99.90
39345;DHT22;25061;51.954;6.996;2023-11-21T06:10:06;7.50;99.90
39345;DHT22;25061;51.954;6.996;2023-11-21T06:12:35;7.60;99.90
39345;DHT22;25061;51.954;6.996;2023-11-21T06:15:05;7.70;99.90
39345;DHT22;25061;51.954;6.996;2023-11-21T06:17:32;7.60;99.90
39345;DHT22;25061;51.954;6.996;2023-11-21T06:19:59;7.50;99.90
39345;DHT22;25061;51.954;6.996;2023-11-21T06:22:26;7.60;99.90
39345;DHT22;25061;51.954;6.996;2023-11-21T06:24:51;7.60;99.90
39345;DHT22;25061;51.954;6.996;2023-11-21T06:27:17;7.50;99.90
39345;DHT22;25061;51.954;6.996;2023-11-21T06:29:43;7.50;99.90
39345;DHT22;25061;51.954;6.996;2023-11-21T06:32:08;7.50;99.90
39345;DHT22;25061;51.954;6.996;2023-11-21T06:34:34;7.70;99.90
39345;DHT22;25061;51.954;6.996;2023-11-21T06:37:00;7.80;99.90
39345;DHT22;25061;51.954;6.996;2023-11-21T06:39:25;7.50;99.90
39345;DHT22;25061;51.954;6.996;2023-11-21T06:41:51;7.50;99.90
39345;DHT22;25061;51.954;6.996;2023-11-21T06:44:17;7.70;99.90
39345;DHT22;25061;51.954;6.996;2023-11-21T06:46:42;7.50;99.90
39345;DHT22;25061;51.954;6.996;2023-11-21T06:49:08;7.60;99.90
39345;DHT22;25061;51.954;6.996;2023-11-21T06:51:34;7.70;99.90
39345;DHT22;25061;51.954;6.996;2023-11-21T06:53:59;7.70;99.90
39345;DHT22;25061;51.954;6.996;2023-11-21T06:56:25;7.50;99.90
39345;DHT22;25061;51.954;6.996;2023-11-21T06:58:51;7.50;99.90
39345;DHT22;25061;51.954;6.996;2023-11-21T07:01:19;7.50;99.90
39345;DHT22;25061;51.954;6.996;2023-11-21T07:03:45;7.50;99.90
39345;DHT22;25061;51.954;6.996;2023-11-21T07:06:11;7.70;99.90
39345;DHT22;25061;51.954;6.996;2023-11-21T07:08:37;7.50;99.90
39345;DHT22;25061;51.954;6.996;2023-11-21T07:11:03;7.50;99.90
39345;DHT22;25061;51.954;6.996;2023-11-21T07:13:30;7.60;99.90
39345;DHT22;25061;51.954;6.996;2023-11-21T07:15:56;7.60;99.90
39345;DHT22;25061;51.954;6.996;2023-11-21T07:18:22;7.60;99.90
39345;DHT22;25061;51.954;6.996;2023-11-21T07:20:48;7.60;99.90
39345;DHT22;25061;51.954;6.996;2023-11-21T07:23:14;7.70;99.90
39345;DHT22;25061;51.954;6.996;2023-11-21T07:25:41;7.60;99.90
39345;DHT22;25061;51.954;6.996;2023-11-21T07:28:07;7.60;99.90
39345;DHT22;25061;51.954;6.996;2023-11-21T07:30:32;7.70;99.90
39345;DHT22;25061;51.954;6.996;2023-11-21T07:32:58;7.50;99.90
39345;DHT22;25061;51.954;6.996;2023-11-21T07:35:24;7.40;99.90
39345;DHT22;25061;51.954;6.996;2023-11-21T07:37:49;7.40;99.90
39345;DHT22;25061;51.954;6.996;2023-11-21T07:40:15;7.60;99.90
39345;DHT22;25061;51.954;6.996;2023-11-21T07:42:42;7.70;99.90
39345;DHT22;25061;51.954;6.996;2023-11-21T07:45:08;7.50;99.90
39345;DHT22;25061;51.954;6.996;2023-11-21T07:47:34;7.70;99.90
39345;DHT22;25061;51.954;6.996;2023-11-21T07:50:03;7.70;99.90
39345;DHT22;25061;51.954;6.996;2023-11-21T07:52:30;7.70;99.90
39345;DHT22;25061;51.954;6.996;2023-11-21T07:54:55;7.80;99.90
39345;DHT22;25061;51.954;6.996;2023-11-21T07:57:21;7.70;99.90
39345;DHT22;25061;51.954;6.996;2023-11-21T07:59:47;7.70;99.90
39345;DHT22;25061;51.954;6.996;2023-11-21T08:02:12;7.80;99.90
39345;DHT22;25061;51.954;6.996;2023-11-21T08:04:38;7.70;99.90
39345;DHT22;25061;51.954;6.996;2023-11-21T08:07:03;7.70;99.90
39345;DHT22;25061;51.954;6.996;2023-11-21T08:09:29;7.80;99.90
39345;DHT22;25061;51.954;6.996;2023-11-21T08:11:55;7.70;99.90
39345;DHT22;25061;51.954;6.996;2023-11-21T08:14:22;7.70;99.90
39345;DHT22;25061;51.954;6.996;2023-11-21T08:16:50;7.60;99.90
39345;DHT22;25061;51.954;6.996;2023-11-21T08:19:16;7.80;99.90
39345;DHT22;25061;51.954;6.996;2023-11-21T08:21:41;7.70;99.90
39345;DHT22;25061;51.954;6.996;2023-11-21T08:24:07;7.80;99.90
39345;DHT22;25061;51.954;6.996;2023-11-21T08:26:36;7.70;99.90
39345;DHT22;25061;51.954;6.996;2023-11-21T08:29:02;7.70;99.90
39345;DHT22;25061;51.954;6.996;2023-11-21T08:31:27;7.80;99.90
39345;DHT22;25061;51.954;6.996;2023-11-21T08:33:54;7.60;99.90
39345;DHT22;25061;51.954;6.996;2023-11-21T08:36:21;7.70;99.90
39345;DHT22;25061;51.954;6.996;2023-11-21T08:38:49;7.80;99.90
39345;DHT22;25061;51.954;6.996;2023-11-21T08:41:17;7.80;99.90
39345;DHT22;25061;51.954;6.996;2023-11-21T08:43:52;8.00;99.90
39345;DHT22;25061;51.954;6.996;2023-11-21T08:46:19;8.10;99.90
39345;DHT22;25061;51.954;6.996;2023-11-21T08:48:44;7.90;99.90
39345;DHT22;25061;51.954;6.996;2023-11-21T08:51:11;8.00;99.90
39345;DHT22;25061;51.954;6.996;2023-11-21T08:53:39;8.10;99.90
39345;DHT22;25061;51.954;6.996;2023-11-21T08:56:07;8.20;99.90
39345;DHT22;25061;51.954;6.996;2023-11-21T08:58:36;8.10;99.90
39345;DHT22;25061;51.954;6.996;2023-11-21T09:01:02;8.00;99.90
39345;DHT22;25061;51.954;6.996;2023-11-21T09:03:28;8.30;99.90
39345;DHT22;25061;51.954;6.996;2023-11-21T09:05:54;8.20;99.90
39345;DHT22;25061;51.954;6.996;2023-11-21T09:08:22;8.30;99.90
39345;DHT22;25061;51.954;6.996;2023-11-21T09:10:48;8.30;99.90
39345;DHT22;25061;51.954;6.996;2023-11-21T09:13:13;8.20;99.90
39345;DHT22;25061;51.954;6.996;2023-11-21T09:15:42;8.40;99.90
39345;DHT22;25061;51.954;6.996;2023-11-21T09:18:09;8.40;99.90
39345;DHT22;25061;51.954;6.996;2023-11-21T09:20:35;8.30;99.90
39345;DHT22;25061;51.954;6.996;2023-11-21T09:23:01;8.40;99.90
39345;DHT22;25061;51.954;6.996;2023-11-21T09:25:26;8.30;99.90
39345;DHT22;25061;51.954;6.996;2023-11-21T09:27:54;8.40;99.90
39345;DHT22;25061;51.954;6.996;2023-11-21T09:30:19;8.50;99.90
39345;DHT22;25061;51.954;6.996;2023-11-21T09:32:45;8.40;99.90
39345;DHT22;25061;51.954;6.996;2023-11-21T09:35:11;8.40;99.90
39345;DHT22;25061;51.954;6.996;2023-11-21T09:37:39;8.40;99.90
39345;DHT22;25061;51.954;6.996;2023-11-21T09:40:07;8.50;99.90
39345;DHT22;25061;51.954;6.996;2023-11-21T09:42:41;8.40;99.90
39345;DHT22;25061;51.954;6.996;2023-11-21T09:45:29;8.60;99.90
39345;DHT22;25061;51.954;6.996;2023-11-21T09:47:59;8.50;99.90
39345;DHT22;25061;51.954;6.996;2023-11-21T09:50:25;8.60;99.90
39345;DHT22;25061;51.954;6.996;2023-11-21T09:55:42;8.50;99.90
39345;DHT22;25061;51.954;6.996;2023-11-21T09:58:09;8.70;99.90
39345;DHT22;25061;51.954;6.996;2023-11-21T10:00:46;8.60;99.90
39345;DHT22;25061;51.954;6.996;2023-11-21T10:03:13;8.70;99.90
39345;DHT22;25061;51.954;6.996;2023-11-21T10:05:39;8.60;99.90
39345;DHT22;25061;51.954;6.996;2023-11-21T10:08:10;8.70;99.90
39345;DHT22;25061;51.954;6.996;2023-11-21T10:10:38;8.60;99.90
39345;DHT22;25061;51.954;6.996;2023-11-21T10:13:13;8.60;99.90
39345;DHT22;25061;51.954;6.996;2023-11-21T10:15:42;8.60;99.90
39345;DHT22;25061;51.954;6.996;2023-11-21T10:18:14;8.70;99.90
39345;DHT22;25061;51.954;6.996;2023-11-21T10:20:40;8.70;99.90
39345;DHT22;25061;51.954;6.996;2023-11-21T10:23:07;8.70;99.90
39345;DHT22;25061;51.954;6.996;2023-11-21T10:25:37;8.60;99.90
39345;DHT22;25061;51.954;6.996;2023-11-21T10:28:03;8.80;99.90
39345;DHT22;25061;51.954;6.996;2023-11-21T10:30:38;8.70;99.90
39345;DHT22;25061;51.954;6.996;2023-11-21T10:33:06;8.70;99.90
39345;DHT22;25061;51.954;6.996;2023-11-21T10:35:48;8.70;99.90
39345;DHT22;25061;51.954;6.996;2023-11-21T10:38:19;8.60;99.90
39345;DHT22;25061;51.954;6.996;2023-11-21T10:40:46;8.70;99.90
39345;DHT22;25061;51.954;6.996;2023-11-21T10:43:13;8.80;99.90
39345;DHT22;25061;51.954;6.996;2023-11-21T10:45:40;8.80;99.90
39345;DHT22;25061;51.954;6.996;2023-11-21T10:48:09;8.70;99.90
39345;DHT22;25061;51.954;6.996;2023-11-21T10:50:40;8.80;99.90
39345;DHT22;25061;51.954;6.996;2023-11-21T10:53:06;8.90;99.90
39345;DHT22;25061;51.954;6.996;2023-11-21T10:55:33;8.80;99.90
39345;DHT22;25061;51.954;6.996;2023-11-21T10:58:01;8.80;99.90
39345;DHT22;25061;51.954;6.996;2023-11-21T11:00:28;8.90;99.90
39345;DHT22;25061;51.954;6.996;2023-11-21T11:02:54;8.80;99.90
39345;DHT22;25061;51.954;6.996;2023-11-21T11:05:22;8.90;99.90
39345;DHT22;25061;51.954;6.996;2023-11-21T11:07:51;8.90;99.90
39345;DHT22;25061;51.954;6.996;2023-11-21T11:10:23;8.80;99.90
39345;DHT22;25061;51.954;6.996;2023-11-21T11:12:51;9.00;99.90
39345;DHT22;25061;51.954;6.996;2023-11-21T11:15:19;9.00;99.90
39345;DHT22;25061;51.954;6.996;2023-11-21T11:17:46;9.10;99.90
39345;DHT22;25061;51.954;6.996;2023-11-21T11:20:13;8.90;99.90
39345;DHT22;25061;51.954;6.996;2023-11-21T11:36:51;8.90;99.90
39345;DHT22;25061;51.954;6.996;2023-11-21T11:39:37;8.90;99.90
39345;DHT22;25061;51.954;6.996;2023-11-21T11:42:12;9.00;99.90
39345;DHT22;25061;51.954;6.996;2023-11-21T11:47:35;8.90;99.90
39345;DHT22;25061;51.954;6.996;2023-11-21T11:50:10;8.90;99.90
39345;DHT22;25061;51.954;6.996;2023-11-21T11:52:49;9.00;99.90
39345;DHT22;25061;51.954;6.996;2023-11-21T11:55:21;8.90;99.90
39345;DHT22;25061;51.954;6.996;2023-11-21T11:57:55;9.00;99.90
39345;DHT22;25061;51.954;6.996;2023-11-21T12:00:41;8.90;99.90
39345;DHT22;25061;51.954;6.996;2023-11-21T12:03:08;9.00;99.90
39345;DHT22;25061;51.954;6.996;2023-11-21T12:05:35;9.00;99.90
39345;DHT22;25061;51.954;6.996;2023-11-21T12:08:05;8.90;99.90
39345;DHT22;25061;51.954;6.996;2023-11-21T12:10:36;9.00;99.90
39345;DHT22;25061;51.954;6.996;2023-11-21T12:13:05;9.00;99.90
39345;DHT22;25061;51.954;6.996;2023-11-21T12:15:32;9.00;99.90
39345;DHT22;25061;51.954;6.996;2023-11-21T12:17:59;8.90;99.90
39345;DHT22;25061;51.954;6.996;2023-11-21T12:20:25;8.90;99.90
39345;DHT22;25061;51.954;6.996;2023-11-21T12:22:57;8.80;99.90
39345;DHT22;25061;51.954;6.996;2023-11-21T12:25:27;8.90;99.90
39345;DHT22;25061;51.954;6.996;2023-11-21T12:28:01;8.90;99.90
39345;DHT22;25061;51.954;6.996;2023-11-21T12:30:30;8.90;99.90
39345;DHT22;25061;51.954;6.996;2023-11-21T12:32:58;8.80;99.90
39345;DHT22;25061;51.954;6.996;2023-11-21T12:35:25;8.70;99.90
39345;DHT22;25061;51.954;6.996;2023-11-21T12:37:52;8.80;99.90
39345;DHT22;25061;51.954;6.996;2023-11-21T12:40:19;8.80;99.90
39345;DHT22;25061;51.954;6.996;2023-11-21T12:42:46;8.80;99.90
39345;DHT22;25061;51.954;6.996;2023-11-21T12:45:20;8.80;99.90
39345;DHT22;25061;51.954;6.996;2023-11-21T12:47:47;8.80;99.90
39345;DHT22;25061;51.954;6.996;2023-11-21T12:50:15;8.70;99.90
39345;DHT22;25061;51.954;6.996;2023-11-21T12:52:47;8.80;99.90
39345;DHT22;25061;51.954;6.996;2023-11-21T12:55:23;8.80;99.90
39345;DHT22;25061;51.954;6.996;2023-11-21T12:57:50;8.70;99.90
39345;DHT22;25061;51.954;6.996;2023-11-21T13:00:58;8.80;99.90
39345;DHT22;25061;51.954;6.996;2023-11-21T13:03:25;8.80;99.90
39345;DHT22;25061;51.954;6.996;2023-11-21T13:05:53;8.70;99.90
39345;DHT22;25061;51.954;6.996;2023-11-21T13:08:22;8.60;99.90
39345;DHT22;25061;51.954;6.996;2023-11-21T13:10:52;8.60;99.90
39345;DHT22;25061;51.954;6.996;2023-11-21T13:13:20;8.60;99.90
39345;DHT22;25061;51.954;6.996;2023-11-21T13:15:56;8.60;99.90
39345;DHT22;25061;51.954;6.996;2023-11-21T13:18:23;8.70;99.90
39345;DHT22;25061;51.954;6.996;2023-11-21T13:20:49;8.70;99.90
39345;DHT22;25061;51.954;6.996;2023-11-21T13:23:15;8.60;99.90
39345;DHT22;25061;51.954;6.996;2023-11-21T13:25:43;8.60;99.90
39345;DHT22;25061;51.954;6.996;2023-11-21T13:28:11;8.60;99.90
39345;DHT22;25061;51.954;6.996;2023-11-21T13:30:37;8.60;99.90
39345;DHT22;25061;51.954;6.996;2023-11-21T13:33:06;8.60;99.90
39345;DHT22;25061;51.954;6.996;2023-11-21T13:35:34;8.60;99.90
39345;DHT22;25061;51.954;6.996;2023-11-21T13:38:13;8.60;99.90
39345;DHT22;25061;51.954;6.996;2023-11-21T13:40:40;8.60;99.90
39345;DHT22;25061;51.954;6.996;2023-11-21T13:43:13;8.50;99.90
39345;DHT22;25061;51.954;6.996;2023-11-21T13:45:40;8.50;99.90
39345;DHT22;25061;51.954;6.996;2023-11-21T13:48:06;8.50;99.90
39345;DHT22;25061;51.954;6.996;2023-11-21T13:50:39;8.40;99.90
39345;DHT22;25061;51.954;6.996;2023-11-21T13:53:10;8.30;99.90
39345;DHT22;25061;51.954;6.996;2023-11-21T13:55:48;8.40;99.90
39345;DHT22;25061;51.954;6.996;2023-11-21T13:58:16;8.30;99.90
39345;DHT22;25061;51.954;6.996;2023-11-21T14:00:47;8.30;99.90
39345;DHT22;25061;51.954;6.996;2023-11-21T14:03:21;8.30;99.90
39345;DHT22;25061;51.954;6.996;2023-11-21T14:05:48;8.30;99.90
39345;DHT22;25061;51.954;6.996;2023-11-21T14:08:20;8.30;99.90
39345;DHT22;25061;51.954;6.996;2023-11-21T14:10:49;8.20;99.90
39345;DHT22;25061;51.954;6.996;2023-11-21T14:13:26;8.10;99.90
39345;DHT22;25061;51.954;6.996;2023-11-21T14:15:53;8.20;99.90
39345;DHT22;25061;51.954;6.996;2023-11-21T14:18:28;8.10;99.90
39345;DHT22;25061;51.954;6.996;2023-11-21T14:21:01;8.00;99.90
39345;DHT22;25061;51.954;6.996;2023-11-21T14:23:27;8.00;99.90
39345;DHT22;25061;51.954;6.996;2023-11-21T14:25:54;8.00;99.90
39345;DHT22;25061;51.954;6.996;2023-11-21T14:28:19;8.00;99.90
39345;DHT22;25061;51.954;6.996;2023-11-21T14:30:48;8.00;99.90
39345;DHT22;25061;51.954;6.996;2023-11-21T14:33:14;8.00;99.90
39345;DHT22;25061;51.954;6.996;2023-11-21T14:35:42;8.00;99.90
39345;DHT22;25061;51.954;6.996;2023-11-21T14:38:08;8.00;99.90
39345;DHT22;25061;51.954;6.996;2023-11-21T14:40:35;7.90;99.90
39345;DHT22;25061;51.954;6.996;2023-11-21T14:43:01;7.90;99.90
39345;DHT22;25061;51.954;6.996;2023-11-21T14:45:30;7.80;99.90
39345;DHT22;25061;51.954;6.996;2023-11-21T14:47:56;7.70;99.90
39345;DHT22;25061;51.954;6.996;2023-11-21T14:50:32;7.70;99.90
39345;DHT22;25061;51.954;6.996;2023-11-21T14:53:20;7.70;99.90
39345;DHT22;25061;51.954;6.996;2023-11-21T14:56:06;7.60;99.90
39345;DHT22;25061;51.954;6.996;2023-11-21T14:58:33;7.60;99.90
39345;DHT22;25061;51.954;6.996;2023-11-21T15:00:59;7.50;99.90
39345;DHT22;25061;51.954;6.996;2023-11-21T15:03:26;7.50;99.90
39345;DHT22;25061;51.954;6.996;2023-11-21T15:06:02;7.50;99.90
39345;DHT22;25061;51.954;6.996;2023-11-21T15:08:54;7.50;99.90
39345;DHT22;25061;51.954;6.996;2023-11-21T15:11:32;7.40;99.90
39345;DHT22;25061;51.954;6.996;2023-11-21T15:13:58;7.40;99.90
39345;DHT22;25061;51.954;6.996;2023-11-21T15:16:26;7.40;99.90
39345;DHT22;25061;51.954;6.996;2023-11-21T15:18:52;7.40;99.90
39345;DHT22;25061;51.954;6.996;2023-11-21T15:21:21;7.40;99.90
39345;DHT22;25061;51.954;6.996;2023-11-21T15:23:48;7.40;99.90
39345;DHT22;25061;51.954;6.996;2023-11-21T15:26:13;7.40;99.90
39345;DHT22;25061;51.954;6.996;2023-11-21T15:28:39;7.40;99.90
39345;DHT22;25061;51.954;6.996;2023-11-21T15:31:05;7.40;99.90
39345;DHT22;25061;51.954;6.996;2023-11-21T15:33:31;7.30;99.90
39345;DHT22;25061;51.954;6.996;2023-11-21T15:35:56;7.30;99.90
39345;DHT22;25061;51.954;6.996;2023-11-21T15:38:23;7.30;99.90
39345;DHT22;25061;51.954;6.996;2023-11-21T15:40:49;7.30;99.90
39345;DHT22;25061;51.954;6.996;2023-11-21T15:43:15;7.20;99.90
39345;DHT22;25061;51.954;6.996;2023-11-21T15:45:41;7.20;99.90
39345;DHT22;25061;51.954;6.996;2023-11-21T15:48:07;7.20;99.90
39345;DHT22;25061;51.954;6.996;2023-11-21T15:50:35;7.20;99.90
39345;DHT22;25061;51.954;6.996;2023-11-21T15:53:01;7.20;99.90
39345;DHT22;25061;51.954;6.996;2023-11-21T15:55:28;7.10;99.90
39345;DHT22;25061;51.954;6.996;2023-11-21T15:57:54;7.10;99.90
39345;DHT22;25061;51.954;6.996;2023-11-21T16:00:20;7.10;99.90
39345;DHT22;25061;51.954;6.996;2023-11-21T16:02:48;7.20;99.90
39345;DHT22;25061;51.954;6.996;2023-11-21T16:05:13;7.10;99.90
39345;DHT22;25061;51.954;6.996;2023-11-21T16:07:40;7.10;99.90
39345;DHT22;25061;51.954;6.996;2023-11-21T16:10:07;7.10;99.90
39345;DHT22;25061;51.954;6.996;2023-11-21T16:12:36;7.10;99.90
39345;DHT22;25061;51.954;6.996;2023-11-21T16:15:02;7.10;99.90
39345;DHT22;25061;51.954;6.996;2023-11-21T16:17:35;7.00;99.90
39345;DHT22;25061;51.954;6.996;2023-11-21T16:20:04;7.10;99.90
39345;DHT22;25061;51.954;6.996;2023-11-21T16:22:34;7.10;99.90
39345;DHT22;25061;51.954;6.996;2023-11-21T16:24:59;7.00;99.90
39345;DHT22;25061;51.954;6.996;2023-11-21T16:27:30;7.10;99.90
39345;DHT22;25061;51.954;6.996;2023-11-21T16:29:56;7.00;99.90
39345;DHT22;25061;51.954;6.996;2023-11-21T16:32:23;7.00;99.90
39345;DHT22;25061;51.954;6.996;2023-11-21T16:34:49;7.00;99.90
39345;DHT22;25061;51.954;6.996;2023-11-21T16:37:15;7.00;99.90
39345;DHT22;25061;51.954;6.996;2023-11-21T16:39:41;7.00;99.90
39345;DHT22;25061;51.954;6.996;2023-11-21T16:42:07;6.90;99.90
39345;DHT22;25061;51.954;6.996;2023-11-21T16:44:33;6.90;99.90
39345;DHT22;25061;51.954;6.996;2023-11-21T16:46:59;6.90;99.90
39345;DHT22;25061;51.954;6.996;2023-11-21T16:49:32;6.90;99.90
39345;DHT22;25061;51.954;6.996;2023-11-21T16:51:59;6.90;99.90
39345;DHT22;25061;51.954;6.996;2023-11-21T16:54:26;6.90;99.90
39345;DHT22;25061;51.954;6.996;2023-11-21T16:56:53;6.90;99.90
39345;DHT22;25061;51.954;6.996;2023-11-21T16:59:19;6.90;99.90
39345;DHT22;25061;51.954;6.996;2023-11-21T17:01:46;6.90;99.90
39345;DHT22;25061;51.954;6.996;2023-11-21T17:04:12;6.80;99.90
39345;DHT22;25061;51.954;6.996;2023-11-21T17:06:41;6.80;99.90
39345;DHT22;25061;51.954;6.996;2023-11-21T17:09:07;6.80;99.90
39345;DHT22;25061;51.954;6.996;2023-11-21T17:11:41;6.80;99.90
39345;DHT22;25061;51.954;6.996;2023-11-21T17:14:07;6.90;99.90
39345;DHT22;25061;51.954;6.996;2023-11-21T17:16:34;6.80;99.90
39345;DHT22;25061;51.954;6.996;2023-11-21T17:19:00;6.80;99.90
39345;DHT22;25061;51.954;6.996;2023-11-21T17:21:27;6.80;99.90
39345;DHT22;25061;51.954;6.996;2023-11-21T17:23:54;6.80;99.90
39345;DHT22;25061;51.954;6.996;2023-11-21T17:26:20;6.80;99.90
39345;DHT22;25061;51.954;6.996;2023-11-21T17:28:46;6.80;99.90
39345;DHT22;25061;51.954;6.996;2023-11-21T17:31:11;6.80;99.90
39345;DHT22;25061;51.954;6.996;2023-11-21T17:33:38;6.80;99.90
39345;DHT22;25061;51.954;6.996;2023-11-21T17:36:04;6.80;99.90
39345;DHT22;25061;51.954;6.996;2023-11-21T17:38:30;6.80;99.90
39345;DHT22;25061;51.954;6.996;2023-11-21T17:40:56;6.80;99.90
39345;DHT22;25061;51.954;6.996;2023-11-21T17:43:21;6.80;99.90
39345;DHT22;25061;51.954;6.996;2023-11-21T17:45:47;6.70;99.90
39345;DHT22;25061;51.954;6.996;2023-11-21T17:48:14;6.80;99.90
39345;DHT22;25061;51.954;6.996;2023-11-21T17:50:40;6.80;99.90
39345;DHT22;25061;51.954;6.996;2023-11-21T17:53:07;6.70;99.90
39345;DHT22;25061;51.954;6.996;2023-11-21T17:55:34;6.80;99.90
39345;DHT22;25061;51.954;6.996;2023-11-21T17:57:59;6.80;99.90
39345;DHT22;25061;51.954;6.996;2023-11-21T18:00:26;6.70;99.90
39345;DHT22;25061;51.954;6.996;2023-11-21T18:02:52;6.70;99.90
39345;DHT22;25061;51.954;6.996;2023-11-21T18:05:18;6.70;99.90
39345;DHT22;25061;51.954;6.996;2023-11-21T18:07:46;6.80;99.90
39345;DHT22;25061;51.954;6.996;2023-11-21T18:10:12;6.70;99.90
39345;DHT22;25061;51.954;6.996;2023-11-21T18:12:38;6.70;99.90
39345;DHT22;25061;51.954;6.996;2023-11-21T18:15:05;6.70;99.90
39345;DHT22;25061;51.954;6.996;2023-11-21T18:17:31;6.70;99.90
39345;DHT22;25061;51.954;6.996;2023-11-21T18:19:56;6.70;99.90
39345;DHT22;25061;51.954;6.996;2023-11-21T18:22:22;6.70;99.90
39345;DHT22;25061;51.954;6.996;2023-11-21T18:24:53;6.70;99.90
39345;DHT22;25061;51.954;6.996;2023-11-21T18:27:20;6.70;99.90
39345;DHT22;25061;51.954;6.996;2023-11-21T18:29:46;6.70;99.90
39345;DHT22;25061;51.954;6.996;2023-11-21T18:32:12;6.70;99.90
39345;DHT22;25061;51.954;6.996;2023-11-21T18:34:41;6.70;99.90
39345;DHT22;25061;51.954;6.996;2023-11-21T18:37:08;6.80;99.90
39345;DHT22;25061;51.954;6.996;2023-11-21T18:39:34;6.80;99.90
39345;DHT22;25061;51.954;6.996;2023-11-21T18:42:00;6.70;99.90
39345;DHT22;25061;51.954;6.996;2023-11-21T18:44:25;6.70;99.90
39345;DHT22;25061;51.954;6.996;2023-11-21T18:46:51;6.70;99.90
39345;DHT22;25061;51.954;6.996;2023-11-21T18:49:18;6.70;99.90
39345;DHT22;25061;51.954;6.996;2023-11-21T18:51:46;6.70;99.90
39345;DHT22;25061;51.954;6.996;2023-11-21T18:54:16;6.70;99.90
39345;DHT22;25061;51.954;6.996;2023-11-21T18:56:41;6.70;99.90
39345;DHT22;25061;51.954;6.996;2023-11-21T18:59:10;6.70;99.90
39345;DHT22;25061;51.954;6.996;2023-11-21T19:01:36;6.60;99.90
39345;DHT22;25061;51.954;6.996;2023-11-21T19:04:02;6.70;99.90
39345;DHT22;25061;51.954;6.996;2023-11-21T19:06:28;6.70;99.90
39345;DHT22;25061;51.954;6.996;2023-11-21T19:08:53;6.60;99.90
39345;DHT22;25061;51.954;6.996;2023-11-21T19:11:20;6.60;99.90
39345;DHT22;25061;51.954;6.996;2023-11-21T19:13:50;6.60;99.90
39345;DHT22;25061;51.954;6.996;2023-11-21T19:16:16;6.70;99.90
39345;DHT22;25061;51.954;6.996;2023-11-21T19:18:42;6.60;99.90
39345;DHT22;25061;51.954;6.996;2023-11-21T19:21:15;6.60;99.90
39345;DHT22;25061;51.954;6.996;2023-11-21T19:23:50;6.60;99.90
39345;DHT22;25061;51.954;6.996;2023-11-21T19:26:17;6.50;99.90
39345;DHT22;25061;51.954;6.996;2023-11-21T19:28:43;6.50;99.90
39345;DHT22;25061;51.954;6.996;2023-11-21T19:31:19;6.40;99.90
39345;DHT22;25061;51.954;6.996;2023-11-21T19:33:48;6.40;99.90
39345;DHT22;25061;51.954;6.996;2023-11-21T19:36:15;6.40;99.90
39345;DHT22;25061;51.954;6.996;2023-11-21T19:38:41;6.40;99.90
39345;DHT22;25061;51.954;6.996;2023-11-21T19:41:20;6.40;99.90
39345;DHT22;25061;51.954;6.996;2023-11-21T19:43:48;6.40;99.90
39345;DHT22;25061;51.954;6.996;2023-11-21T19:46:15;6.40;99.90
39345;DHT22;25061;51.954;6.996;2023-11-21T19:48:41;6.40;99.90
39345;DHT22;25061;51.954;6.996;2023-11-21T19:51:08;6.30;99.90
39345;DHT22;25061;51.954;6.996;2023-11-21T19:53:34;6.20;99.90
39345;DHT22;25061;51.954;6.996;2023-11-21T19:56:06;6.20;99.90
39345;DHT22;25061;51.954;6.996;2023-11-21T19:58:35;6.20;99.90
39345;DHT22;25061;51.954;6.996;2023-11-21T20:01:00;6.20;99.90
39345;DHT22;25061;51.954;6.996;2023-11-21T20:03:26;6.20;99.90
39345;DHT22;25061;51.954;6.996;2023-11-21T20:05:53;6.20;99.90
39345;DHT22;25061;51.954;6.996;2023-11-21T20:08:19;6.10;99.90
39345;DHT22;25061;51.954;6.996;2023-11-21T20:10:44;6.10;99.90
39345;DHT22;25061;51.954;6.996;2023-11-21T20:13:12;6.10;99.90
39345;DHT22;25061;51.954;6.996;2023-11-21T20:15:38;6.00;99.90
39345;DHT22;25061;51.954;6.996;2023-11-21T20:18:04;6.00;99.90
39345;DHT22;25061;51.954;6.996;2023-11-21T20:20:30;6.00;99.90
39345;DHT22;25061;51.954;6.996;2023-11-21T20:22:56;5.90;99.90
39345;DHT22;25061;51.954;6.996;2023-11-21T20:25:22;5.90;99.90
39345;DHT22;25061;51.954;6.996;2023-11-21T20:27:48;5.80;99.90
39345;DHT22;25061;51.954;6.996;2023-11-21T20:30:14;5.80;99.90
39345;DHT22;25061;51.954;6.996;2023-11-21T20:32:40;5.80;99.90
39345;DHT22;25061;51.954;6.996;2023-11-21T20:35:06;5.80;99.90
39345;DHT22;25061;51.954;6.996;2023-11-21T20:37:32;5.80;99.90
39345;DHT22;25061;51.954;6.996;2023-11-21T20:40:02;5.80;99.90
39345;DHT22;25061;51.954;6.996;2023-11-21T20:42:33;5.80;99.90
39345;DHT22;25061;51.954;6.996;2023-11-21T20:44:58;5.80;99.90
39345;DHT22;25061;51.954;6.996;2023-11-21T20:47:24;5.80;99.90
39345;DHT22;25061;51.954;6.996;2023-11-21T20:49:50;5.80;99.90
39345;DHT22;25061;51.954;6.996;2023-11-21T20:52:23;5.70;99.90
39345;DHT22;25061;51.954;6.996;2023-11-21T20:54:49;5.70;99.90
39345;DHT22;25061;51.954;6.996;2023-11-21T20:57:14;5.60;99.90
39345;DHT22;25061;51.954;6.996;2023-11-21T20:59:40;5.60;99.90
39345;DHT22;25061;51.954;6.996;2023-11-21T21:02:05;5.50;99.90
39345;DHT22;25061;51.954;6.996;2023-11-21T21:04:31;5.50;99.90
39345;DHT22;25061;51.954;6.996;2023-11-21T21:06:57;5.40;99.90
39345;DHT22;25061;51.954;6.996;2023-11-21T21:09:23;5.40;99.90
39345;DHT22;25061;51.954;6.996;2023-11-21T21:11:49;5.40;99.90
39345;DHT22;25061;51.954;6.996;2023-11-21T21:14:14;5.30;99.90
39345;DHT22;25061;51.954;6.996;2023-11-21T21:16:41;5.40;99.90
39345;DHT22;25061;51.954;6.996;2023-11-21T21:19:08;5.30;99.90
39345;DHT22;25061;51.954;6.996;2023-11-21T21:21:35;5.20;99.90
39345;DHT22;25061;51.954;6.996;2023-11-21T21:24:00;5.20;99.90
39345;DHT22;25061;51.954;6.996;2023-11-21T21:26:26;5.10;99.90
39345;DHT22;25061;51.954;6.996;2023-11-21T21:28:55;5.10;99.90
39345;DHT22;25061;51.954;6.996;2023-11-21T21:31:22;5.10;99.90
39345;DHT22;25061;51.954;6.996;2023-11-21T21:33:48;5.10;99.90
39345;DHT22;25061;51.954;6.996;2023-11-21T21:36:13;5.00;99.90
39345;DHT22;25061;51.954;6.996;2023-11-21T21:38:39;5.00;99.90